createdAt,value
2023-01-21T00:03:43.698Z,6.63
2023-01-21T00:13:46.018Z,6.13
2023-01-21T00:23:48.486Z,6.63
2023-01-21T00:33:50.664Z,5.73
2023-01-21T00:43:55.274Z,4.87
2023-01-21T00:53:57.361Z,4.53
2023-01-21T01:03:59.399Z,5.47
2023-01-21T01:14:06.352Z,5.80
2023-01-21T01:24:08.782Z,2.97
2023-01-21T01:34:15.865Z,3.87
2023-01-21T01:44:56.499Z,4.90
2023-01-21T01:55:02.431Z,3.07
2023-01-21T02:05:11.909Z,3.20
2023-01-21T02:15:16.253Z,3.57
2023-01-21T02:25:36.551Z,4.77
2023-01-21T02:35:43.933Z,4.53
2023-01-21T02:45:55.981Z,4.97
2023-01-21T02:56:02.487Z,4.67
2023-01-21T03:06:16.795Z,4.10
2023-01-21T03:16:41.508Z,3.83
2023-01-21T03:26:48.217Z,3.37
2023-01-21T03:37:20.629Z,4.10
2023-01-21T03:47:32.933Z,4.77
2023-01-21T03:57:37.549Z,4.47
2023-01-21T04:07:41.916Z,3.73
2023-01-21T04:17:43.944Z,2.93
2023-01-21T04:27:50.534Z,2.40
2023-01-21T04:37:55.658Z,1.47
2023-01-21T04:48:00.351Z,1.57
2023-01-21T04:58:02.430Z,1.30
2023-01-21T05:08:04.597Z,1.03
2023-01-21T05:18:11.545Z,1.67
2023-01-21T05:28:21.123Z,0.73
2023-01-21T05:38:25.372Z,0.80
2023-01-21T05:48:29.679Z,1.00
2023-01-21T05:58:36.890Z,1.10
2023-01-21T06:08:41.226Z,1.17
2023-01-21T06:18:43.788Z,1.10
2023-01-21T06:28:46.123Z,2.27
2023-01-21T06:38:50.490Z,0.73
2023-01-21T06:48:53.927Z,1.57
2023-01-21T06:59:02.767Z,0.90
2023-01-21T07:09:07.853Z,1.70
2023-01-21T07:19:17.176Z,1.70
2023-01-21T07:29:19.648Z,1.70
2023-01-21T07:39:26.227Z,1.23
2023-01-21T07:49:28.292Z,1.60
2023-01-21T07:59:33.407Z,1.30
2023-01-21T08:09:40.346Z,1.20
2023-01-21T08:19:42.357Z,1.67
2023-01-21T08:29:48.663Z,2.37
2023-01-21T08:39:53.176Z,0.90
2023-01-21T08:49:55.248Z,1.37
2023-01-21T09:00:02.316Z,1.60
2023-01-21T09:10:06.431Z,2.37
2023-01-21T09:20:09.384Z,2.07
2023-01-21T09:30:11.726Z,2.63
2023-01-21T09:40:16.667Z,3.43
2023-01-21T09:50:22.734Z,2.50
2023-01-21T10:00:33.728Z,3.17
2023-01-21T10:11:15.980Z,4.03
2023-01-21T10:21:31.359Z,7.33
2023-01-21T10:31:40.142Z,5.77
2023-01-21T10:42:10.523Z,5.10
2023-01-21T10:53:02.821Z,4.70
2023-01-21T11:03:33.291Z,5.23
2023-01-21T11:13:37.817Z,4.87
2023-01-21T11:23:42.303Z,9.00
2023-01-21T11:33:44.431Z,7.33
2023-01-21T11:43:49.165Z,6.53
2023-01-21T11:54:06.969Z,8.10
2023-01-21T12:04:13.165Z,8.10
2023-01-21T12:14:32.637Z,8.57
2023-01-21T12:25:05.808Z,10.20
2023-01-21T12:35:23.795Z,8.40
2023-01-21T12:45:31.369Z,11.07
2023-01-21T12:55:58.259Z,4.33
2023-01-21T13:06:02.929Z,10.30
2023-01-21T13:16:08.496Z,8.90
2023-01-21T13:26:36.953Z,11.33
2023-01-21T13:36:47.305Z,10.33
2023-01-21T13:47:26.995Z,7.67
2023-01-21T13:57:44.068Z,10.17
2023-01-21T14:08:12.758Z,14.87
2023-01-21T14:18:24.629Z,8.83
2023-01-21T14:28:56.990Z,13.23
2023-01-21T14:39:19.255Z,17.37
2023-01-21T14:49:39.857Z,15.40
2023-01-21T14:59:46.523Z,8.63
2023-01-21T15:09:55.104Z,19.20
2023-01-21T15:20:01.392Z,10.87
2023-01-21T15:30:03.501Z,9.27
2023-01-21T15:40:38.229Z,8.63
2023-01-21T15:50:45.173Z,18.53
2023-01-21T16:00:57.195Z,20.70
2023-01-21T16:11:30.487Z,18.10
2023-01-21T16:21:36.865Z,11.63
2023-01-21T16:31:50.930Z,21.30
2023-01-21T16:42:06.878Z,13.03
2023-01-21T16:52:13.849Z,12.37
2023-01-21T17:02:28.639Z,7.47
2023-01-21T17:12:36.219Z,23.70
2023-01-21T17:22:44.207Z,20.50
2023-01-21T17:32:55.459Z,24.10
2023-01-21T17:43:09.729Z,10.27
2023-01-21T17:53:22.655Z,11.23
2023-01-21T18:03:25.679Z,18.47
2023-01-21T18:13:30.315Z,29.60
2023-01-21T18:23:35.070Z,10.17
2023-01-21T18:33:39.721Z,17.87
2023-01-21T18:43:44.312Z,25.97
2023-01-21T18:53:46.659Z,29.03
2023-01-21T19:03:55.198Z,25.97
2023-01-21T19:13:57.241Z,24.07
2023-01-21T19:23:59.309Z,29.50
2023-01-21T19:34:06.492Z,9.33
2023-01-21T19:44:08.660Z,26.33
2023-01-21T19:54:13.324Z,33.27
2023-01-21T20:04:17.968Z,13.20
2023-01-21T20:14:22.752Z,28.10
2023-01-21T20:24:30.393Z,41.87
2023-01-21T20:34:37.707Z,13.57
2023-01-21T20:44:39.822Z,29.80
2023-01-21T20:54:41.923Z,11.00
2023-01-21T21:04:46.555Z,22.63
2023-01-21T21:14:48.656Z,17.10
2023-01-21T21:24:50.774Z,23.43
2023-01-21T21:34:55.330Z,24.37
2023-01-21T21:44:57.392Z,23.33
2023-01-21T21:55:01.669Z,28.30
2023-01-21T22:05:06.514Z,17.50
2023-01-21T22:15:11.289Z,25.73
2023-01-21T22:25:13.467Z,43.78
2023-01-21T22:35:15.855Z,19.07
2023-01-21T22:45:20.670Z,20.43
2023-01-21T22:55:27.457Z,12.70
2023-01-21T23:05:30.022Z,9.23
2023-01-21T23:15:32.123Z,30.57
2023-01-21T23:25:34.209Z,21.70
2023-01-21T23:35:41.339Z,21.67
2023-01-21T23:45:45.937Z,29.60
2023-01-21T23:55:48.041Z,23.13
